»·PEaware :: ASA691 KSAN-KSBA

ASA691 :: KSAN-KSBA

FLIGHT INFORMATION

Flight Status: Arrived
Operator:
Alaska Airlines
More flights by this operator :: More flights under this callsign
Pilot: Thomas N. (7419)
Aircraft: BOEING 737-300
(B733)
More flights by this aircraft type
Origin: KSAN San Diego Intl-Lindbergh
United States
Destination: KSBA Santa Barbara Mun
United States
More flights between these airports :: More routes between these airports
Route: PEBLE6 SXC V208 VTU VTU282 KWANG
File this flight plan on PilotEdge
Remarks: SANN36
Altitude:
(Current/Filed)
10,000ft
Speed:
(Current/Filed)
440kts
Departed: 03-May-16 06:24 PM
Arrived: 03-May-16 07:02 PM
Distance/Time
Traveled:
167nm/0:38
Distance/Time
To Go:
Arrived

Flight Plot

Page will automatically refresh every two minutes.


Map Options




Map Legend


Flown Route
Filed Route
Departure Airport
Arrival Airport
Navaid (VOR, NDB)
Fix

Horizontal Profiles

Position Reports

Time Latitude Longitude Heading Altitude Ground
Speed
03-May-16 17:50 32.733716 -117.198962 144 24ft 0kts
03-May-16 17:51 32.733716 -117.198962 144 24ft 0kts
03-May-16 17:52 32.733716 -117.198962 144 24ft 0kts
03-May-16 17:53 32.733716 -117.198962 144 24ft 0kts
03-May-16 17:54 32.733716 -117.198962 144 24ft 0kts
03-May-16 17:55 32.733716 -117.198962 144 24ft 0kts
03-May-16 17:56 32.733716 -117.198962 144 24ft 0kts
03-May-16 17:58 32.733736 -117.198974 147 24ft 0kts
03-May-16 17:59 32.733736 -117.198974 147 24ft 0kts
03-May-16 18:00 32.733736 -117.198974 147 24ft 0kts
03-May-16 18:01 32.733736 -117.198974 147 24ft 0kts
03-May-16 18:02 32.733736 -117.198974 147 24ft 0kts
03-May-16 18:03 32.733736 -117.198974 147 24ft 0kts
03-May-16 18:04 32.733736 -117.198974 147 24ft 0kts
03-May-16 18:05 32.733736 -117.198974 147 24ft 0kts
03-May-16 18:06 32.733736 -117.198974 147 24ft 0kts
03-May-16 18:07 32.733736 -117.198974 147 24ft 0kts
03-May-16 18:08 32.733736 -117.198974 147 24ft 0kts
03-May-16 18:09 32.733736 -117.198974 147 24ft 0kts
03-May-16 18:10 32.733939 -117.199128 147 24ft 0kts
03-May-16 18:11 32.734110 -117.199662 71 24ft 0kts
03-May-16 18:12 32.734102 -117.199691 72 24ft 0kts
03-May-16 18:13 32.734320 -117.199559 17 24ft 4kts
03-May-16 18:14 32.734163 -117.196445 106 24ft 7kts
03-May-16 18:15 32.733610 -117.194126 106 24ft 12kts
03-May-16 18:16 32.732675 -117.190236 105 24ft 11kts
03-May-16 18:17 32.731737 -117.186413 106 24ft 13kts
03-May-16 18:18 32.730586 -117.181661 113 24ft 14kts
03-May-16 18:19 32.729559 -117.177350 104 24ft 13kts
03-May-16 18:20 32.729523 -117.176809 82 24ft 0kts
03-May-16 18:21 32.729523 -117.176809 82 24ft 0kts
03-May-16 18:22 32.729619 -117.176325 70 24ft 11kts
03-May-16 18:23 32.730771 -117.178286 284 24ft 66kts
03-May-16 18:24 32.747607 -117.227813 305 1677ft 191kts
03-May-16 18:25 32.780127 -117.280400 307 4213ft 212kts
03-May-16 18:26 32.813598 -117.339813 303 6807ft 245kts
03-May-16 18:27 32.851741 -117.407792 303 8286ft 270kts
03-May-16 18:28 32.905757 -117.461011 325 9685ft 288kts
03-May-16 18:29 32.977652 -117.514176 326 9982ft 348kts
03-May-16 18:30 33.042286 -117.607260 301 10011ft 373kts
03-May-16 18:31 33.100489 -117.709547 303 10000ft 374kts
03-May-16 18:32 33.162736 -117.808805 305 9998ft 375kts
03-May-16 18:33 33.209638 -117.916304 289 10002ft 372kts
03-May-16 18:34 33.247702 -118.031408 290 10020ft 372kts
03-May-16 18:35 33.285729 -118.145450 290 10027ft 372kts
03-May-16 18:36 33.323660 -118.259752 289 10025ft 372kts
03-May-16 18:37 33.359428 -118.368469 289 10036ft 362kts
03-May-16 18:38 33.403651 -118.461294 310 10026ft 314kts
03-May-16 18:39 33.463721 -118.544766 308 10032ft 330kts
03-May-16 18:40 33.522541 -118.628518 308 10026ft 330kts
03-May-16 18:41 33.580496 -118.711398 308 10026ft 331kts
03-May-16 18:42 33.639767 -118.796372 308 10023ft 333kts
03-May-16 18:43 33.695691 -118.876734 307 10012ft 334kts
03-May-16 18:44 33.755290 -118.962573 307 10007ft 335kts
03-May-16 18:45 33.823268 -119.036524 351 9999ft 345kts
03-May-16 18:46 33.919170 -119.032091 356 9298ft 342kts
03-May-16 18:47 34.011132 -119.040091 353 8026ft 329kts
03-May-16 18:48 34.100969 -119.049275 353 8009ft 330kts
03-May-16 18:49 34.157182 -119.110066 272 7468ft 299kts
03-May-16 18:50 34.179561 -119.196340 289 6715ft 268kts
03-May-16 18:51 34.210642 -119.275774 292 5246ft 263kts
03-May-16 18:52 34.241362 -119.350192 293 4035ft 250kts
03-May-16 18:53 34.272381 -119.424862 293 4034ft 247kts
03-May-16 18:54 34.303106 -119.498806 294 3995ft 245kts
03-May-16 18:55 34.344864 -119.556264 311 4012ft 216kts
03-May-16 18:56 34.375919 -119.603376 282 4001ft 211kts
03-May-16 18:57 34.391084 -119.672067 296 3524ft 204kts
03-May-16 18:58 34.424212 -119.724742 286 2408ft 173kts
03-May-16 18:59 34.428472 -119.777850 268 1245ft 162kts
03-May-16 19:00 34.427800 -119.822685 268 397ft 129kts
03-May-16 19:01 34.426466 -119.846240 141 20ft 14kts
03-May-16 19:02 34.426431 -119.839716 88 20ft 17kts
03-May-16 19:03 34.425649 -119.836716 189 20ft 0kts

Navigation Log

Ident Type
Flight plan parsing failed, navigation log unavailable